Time;durP1;ratioP1;P1;durP2;ratioP2;P2;SDS_P1;SDS_P2;PMS_P1;PMS_P2;Temp;Humidity;BMP_temperature;BMP_pressure;BME280_temperature;BME280_humidity;BME280_pressure;Samples;Min_cycle;Max_cycle;Signal;HPM_P1;HPM_P2
2023/01/15 13:20:53;;;;;;;7.55;1.88;;;;;;;2.94;85.65;95862.25;2106371;27;20560;-63
2023/01/15 13:22:01;;;;;;;8.15;2.50;;;;;;;3.13;85.69;95864.34;2107231;28;20643;-64
2023/01/15 13:23:19;;;;;;;14.40;2.08;;;;;;;3.49;82.89;95867.59;2096300;28;20224;-64
2023/01/15 13:24:45;;;;;;;8.77;2.50;;;;;;;4.37;81.00;95862.31;2094422;28;20884;-64
2023/01/15 13:26:02;;;;;;;5.03;2.35;;;;;;;4.86;78.22;95861.56;2099897;28;20207;-65
2023/01/15 13:27:10;;;;;;;6.25;1.98;;;;;;;5.14;77.51;95842.47;2100204;28;20203;-64
2023/01/15 13:28:40;;;;;;;6.35;2.55;;;;;;;5.16;76.29;95859.66;2098886;28;20231;-64
2023/01/15 13:30:41;;;;;;;12.10;2.83;;;;;;;5.25;75.69;95866.25;2089528;28;20569;-65
2023/01/15 13:31:52;;;;;;;2.55;1.40;;;;;;;5.12;75.73;95867.59;2094413;28;20199;-65
2023/01/15 13:32:57;;;;;;;1.98;1.00;;;;;;;5.29;74.47;95860.03;2091794;28;20200;-65
2023/01/15 13:34:06;;;;;;;4.30;1.00;;;;;;;5.12;74.64;95871.00;2086925;28;20204;-65
2023/01/15 13:35:53;;;;;;;3.58;1.63;;;;;;;5.14;75.93;95870.94;2083962;28;20574;-63
2023/01/15 13:37:03;;;;;;;10.13;4.00;;;;;;;5.21;74.88;95875.03;2079191;28;20194;-66
2023/01/15 13:39:23;;;;;;;10.18;3.70;;;;;;;4.78;76.85;95872.19;2102551;27;20566;-66
2023/01/15 13:42:56;;;;;;;7.35;1.50;;;;;;;4.77;77.52;95867.91;2077024;28;20192;-65
2023/01/15 13:44:01;;;;;;;4.88;1.65;;;;;;;5.30;75.17;95873.84;2064116;28;20219;-66
2023/01/15 13:45:21;;;;;;;9.60;3.45;;;;;;;5.10;73.37;95887.50;2065346;28;20205;-65
2023/01/15 13:46:23;;;;;;;7.00;2.80;;;;;;;5.20;73.58;95884.50;2066096;28;20205;-65
2023/01/15 13:47:27;;;;;;;11.90;5.68;;;;;;;5.17;73.25;95889.81;2065877;28;20223;-65
2023/01/15 13:48:32;;;;;;;4.15;1.45;;;;;;;5.20;73.48;95894.88;2065600;28;20705;-65
2023/01/15 13:49:37;;;;;;;5.28;1.27;;;;;;;5.25;73.13;95897.31;2065524;28;20217;-65
2023/01/15 13:50:51;;;;;;;6.65;1.45;;;;;;;5.44;73.63;95894.06;2067395;28;20198;-66
2023/01/15 13:51:55;;;;;;;4.25;1.10;;;;;;;5.32;72.89;95887.56;2067172;28;20187;-65
2023/01/15 13:53:20;;;;;;;4.75;2.50;;;;;;;5.64;73.36;95896.75;2066452;28;20210;-65
2023/01/15 13:54:25;;;;;;;2.95;1.35;;;;;;;5.49;71.75;95880.03;2066145;28;20566;-65
2023/01/15 13:55:37;;;;;;;3.58;1.20;;;;;;;5.31;71.76;95901.44;2066752;28;20201;-65
2023/01/15 13:56:38;;;;;;;5.30;1.30;;;;;;;5.77;72.45;95894.56;2065127;28;20559;-65
2023/01/15 13:57:42;;;;;;;8.80;1.20;;;;;;;5.73;71.66;95903.34;2062272;28;20199;-64
2023/01/15 13:59:04;;;;;;;2.95;1.00;;;;;;;5.74;72.49;95902.47;2062766;28;20199;-65
2023/01/15 14:00:25;;;;;;;5.55;2.10;;;;;;;5.88;71.67;95904.53;2064830;28;20850;-65
2023/01/15 14:01:29;;;;;;;16.88;5.88;;;;;;;5.89;71.73;95912.25;2065569;28;20222;-65
2023/01/15 14:02:35;;;;;;;10.13;3.03;;;;;;;6.15;72.05;95900.06;2067082;28;20273;-65
2023/01/15 14:03:37;;;;;;;17.67;7.40;;;;;;;5.95;70.57;95905.97;2065099;28;20225;-65
2023/01/15 14:04:39;;;;;;;14.65;4.45;;;;;;;5.86;70.15;95901.97;2062494;28;20204;-66
2023/01/15 14:05:40;;;;;;;14.88;5.22;;;;;;;5.28;72.73;95909.28;2062727;28;20225;-65
2023/01/15 14:07:44;;;;;;;22.33;6.75;;;;;;;5.02;72.48;95903.28;2093759;27;20571;-65
2023/01/15 14:09:49;;;;;;;20.15;6.10;;;;;;;4.90;74.09;95908.00;2083645;28;20562;-65
2023/01/15 14:11:42;;;;;;;16.90;6.00;;;;;;;4.75;73.60;95905.91;2081826;28;21280;-65
2023/01/15 14:13:05;;;;;;;25.52;9.40;;;;;;;4.74;74.05;95907.66;2078166;28;20200;-64
2023/01/15 14:14:49;;;;;;;11.65;4.78;;;;;;;4.92;72.76;95914.88;2072984;28;20251;-61
2023/01/15 14:16:22;;;;;;;11.93;4.80;;;;;;;4.62;72.73;95921.00;2072467;28;20197;-61
2023/01/15 14:34:09;;;;;;;8.48;2.38;;;;;;;3.69;77.54;95890.25;2084518;28;20561;-60
2023/01/15 14:35:14;;;;;;;9.95;3.45;;;;;;;4.01;77.34;95879.84;2072599;28;20210;-61
2023/01/15 14:36:19;;;;;;;13.30;4.07;;;;;;;4.05;76.82;95900.38;2071467;28;20218;-61
2023/01/15 14:37:30;;;;;;;13.48;4.68;;;;;;;4.29;75.41;95915.16;2076996;28;20240;-61
2023/01/15 14:38:32;;;;;;;9.60;3.72;;;;;;;4.23;75.86;95898.13;2070134;28;20221;-61
2023/01/15 14:39:48;;;;;;;18.83;6.47;;;;;;;4.17;75.79;95890.56;2070347;28;20198;-60
2023/01/15 14:41:05;;;;;;;20.67;7.32;;;;;;;4.42;75.87;95893.19;2067635;28;20247;-61
2023/01/15 14:43:48;;;;;;;3.75;1.35;;;;;;;4.30;74.87;95896.19;2068772;28;20230;-61
2023/01/15 14:44:59;;;;;;;4.85;1.60;;;;;;;4.15;75.24;95887.16;2068395;28;20829;-60
2023/01/15 14:46:23;;;;;;;6.95;2.65;;;;;;;4.44;75.51;95899.16;2071022;28;20201;-60
2023/01/15 14:47:29;;;;;;;13.30;4.57;;;;;;;4.48;75.32;95892.16;2069006;28;20232;-61
2023/01/15 14:48:31;;;;;;;13.23;3.67;;;;;;;4.55;75.11;95894.47;2066218;28;20233;-65
2023/01/15 14:49:48;;;;;;;16.30;3.88;;;;;;;4.60;75.10;95898.66;2068969;28;20202;-65
2023/01/15 14:50:52;;;;;;;10.52;1.50;;;;;;;4.34;74.29;95892.59;2081732;28;20197;-65
2023/01/15 14:51:54;;;;;;;7.22;1.80;;;;;;;4.34;73.99;95919.31;2082965;28;20211;-65
2023/01/15 14:54:07;;;;;;;11.30;4.22;;;;;;;4.30;75.77;95901.34;2082759;27;20561;-66
2023/01/15 14:55:11;;;;;;;19.58;6.63;;;;;;;4.14;75.51;95903.56;2082109;28;20207;-67
2023/01/15 14:56:32;;;;;;;18.73;5.72;;;;;;;4.37;75.64;95903.69;2083873;28;20199;-65
2023/01/15 14:57:35;;;;;;;62.10;22.35;;;;;;;4.43;75.18;95894.88;2083125;28;20197;-66
2023/01/15 14:58:51;;;;;;;48.40;18.25;;;;;;;4.22;75.17;95905.00;2074371;28;20228;-60
2023/01/15 15:00:02;;;;;;;8.90;3.55;;;;;;;4.25;75.41;95914.41;2073116;28;20672;-61
2023/01/15 15:01:23;;;;;;;7.78;2.85;;;;;;;4.21;75.61;95910.22;2070305;28;20210;-60
2023/01/15 15:02:38;;;;;;;6.88;2.78;;;;;;;4.24;75.79;95917.88;2073201;28;20201;-60
2023/01/15 15:03:49;;;;;;;4.00;1.60;;;;;;;4.15;75.70;95903.53;2065922;28;20214;-60
2023/01/15 15:04:54;;;;;;;8.40;3.55;;;;;;;4.14;76.13;95901.84;2069443;28;20213;-60
2023/01/15 15:05:56;;;;;;;13.45;4.65;;;;;;;4.15;76.34;95898.34;2069608;28;20631;-60
2023/01/15 15:07:02;;;;;;;9.73;3.92;;;;;;;4.26;76.66;95910.94;2066889;28;20202;-60
2023/01/15 15:08:04;;;;;;;11.50;3.42;;;;;;;4.23;76.89;95904.13;2062775;28;20685;-60
2023/01/15 15:09:12;;;;;;;5.50;2.03;;;;;;;4.16;76.54;95915.53;2065251;28;20209;-60
2023/01/15 15:10:38;;;;;;;9.70;3.90;;;;;;;4.15;77.67;95916.44;2066829;28;20194;-60
